Time;durP1;ratioP1;P1;durP2;ratioP2;P2;SDS_P1;SDS_P2;PMS_P1;PMS_P2;Temp;Humidity;BMP_temperature;BMP_pressure;BME280_temperature;BME280_humidity;BME280_pressure;Samples;Min_cycle;Max_cycle;Signal;HPM_P1;HPM_P2
2022/01/30 00:00:40;;;;;;;1.38;0.50;;;8.00;99.90;;;;;;6220193;23;20010;-61
2022/01/30 00:03:06;;;;;;;0.73;0.55;;;8.00;99.90;;;;;;6247002;23;20004;-61
2022/01/30 00:05:34;;;;;;;0.65;0.52;;;8.00;99.90;;;;;;6247541;23;20000;-61
2022/01/30 00:08:00;;;;;;;1.30;0.40;;;8.00;99.90;;;;;;6221156;23;20000;-61
2022/01/30 00:10:26;;;;;;;1.75;0.80;;;8.00;99.90;;;;;;6247325;23;20003;-61
2022/01/30 00:12:58;;;;;;;1.05;0.52;;;8.10;99.90;;;;;;6246737;23;20078;-61
2022/01/30 00:15:36;;;;;;;3.83;0.68;;;8.00;99.90;;;;;;6219692;23;20079;-61
2022/01/30 00:18:38;;;;;;;1.20;0.53;;;8.00;99.90;;;;;;6247173;23;20050;-67
2022/01/30 00:21:05;;;;;;;0.70;0.55;;;7.90;99.90;;;;;;6243440;23;20012;-61
2022/01/30 00:23:33;;;;;;;0.57;0.57;;;7.80;99.90;;;;;;6220333;23;20050;-61
2022/01/30 00:25:59;;;;;;;1.03;0.90;;;7.80;99.90;;;;;;6246907;23;20004;-61
2022/01/30 00:28:27;;;;;;;0.52;0.52;;;7.80;99.90;;;;;;6220115;23;20314;-61
2022/01/30 00:30:54;;;;;;;2.05;0.77;;;7.80;99.90;;;;;;6246678;23;20483;-61
2022/01/30 00:33:38;;;;;;;3.20;0.70;;;7.80;99.90;;;;;;6219868;23;20349;-61
2022/01/30 00:36:04;;;;;;;0.55;0.55;;;7.70;99.90;;;;;;6246856;23;20000;-61
2022/01/30 00:38:31;;;;;;;0.52;0.50;;;7.70;99.90;;;;;;6247587;22;20023;-61
2022/01/30 00:40:56;;;;;;;1.13;0.68;;;7.70;99.90;;;;;;6246860;23;19996;-61
2022/01/30 00:43:22;;;;;;;1.83;0.70;;;7.80;99.90;;;;;;6246403;23;20000;-61
2022/01/30 00:46:06;;;;;;;0.40;0.40;;;7.80;99.90;;;;;;6246787;23;19996;-61
2022/01/30 00:48:32;;;;;;;0.38;0.38;;;7.80;99.90;;;;;;6246719;23;19996;-61
2022/01/30 00:50:57;;;;;;;0.30;0.30;;;7.90;99.90;;;;;;6219847;23;20318;-61
2022/01/30 00:53:23;;;;;;;1.35;0.40;;;7.90;99.90;;;;;;6246595;23;20007;-61
2022/01/30 00:55:49;;;;;;;0.35;0.35;;;8.00;99.90;;;;;;6220613;23;20000;-61
2022/01/30 00:58:14;;;;;;;0.40;0.40;;;8.00;99.90;;;;;;6246381;23;20027;-61
2022/01/30 01:00:40;;;;;;;1.17;0.45;;;8.10;99.90;;;;;;6246786;23;20007;-61
2022/01/30 01:03:06;;;;;;;0.40;0.40;;;8.10;99.90;;;;;;6246704;23;19996;-61
2022/01/30 01:05:34;;;;;;;0.80;0.60;;;8.10;99.90;;;;;;6246876;23;19997;-61
2022/01/30 01:09:22;;;;;;;0.90;0.32;;;8.10;99.90;;;;;;6220227;23;20003;-61
2022/01/30 01:11:52;;;;;;;1.52;1.10;;;8.10;99.90;;;;;;6220154;23;20497;-61
2022/01/30 01:20:49;;;;;;;0.63;0.40;;;8.10;99.90;;;;;;6246074;23;20088;-61
2022/01/30 01:25:00;;;;;;;0.82;0.60;;;8.20;99.90;;;;;;6248732;23;20061;-61
2022/01/30 01:27:26;;;;;;;0.98;0.47;;;8.20;99.90;;;;;;6221756;23;20079;-61
2022/01/30 01:29:51;;;;;;;1.48;0.40;;;8.20;99.90;;;;;;6248605;23;20011;-61
2022/01/30 01:32:17;;;;;;;0.60;0.57;;;8.30;99.90;;;;;;6248221;23;20004;-61
2022/01/30 01:34:43;;;;;;;0.60;0.50;;;8.20;99.90;;;;;;6221244;23;20012;-61
2022/01/30 01:37:11;;;;;;;0.50;0.50;;;8.20;99.90;;;;;;6221295;23;20022;-61
2022/01/30 01:39:37;;;;;;;0.40;0.30;;;8.20;99.90;;;;;;6248487;23;20007;-63
2022/01/30 01:42:03;;;;;;;0.75;0.60;;;8.20;99.90;;;;;;6248418;23;20015;-61
2022/01/30 01:44:37;;;;;;;3.17;0.30;;;8.20;99.90;;;;;;6248735;23;20000;-61
2022/01/30 01:47:04;;;;;;;1.63;0.60;;;8.20;99.90;;;;;;6221941;23;20329;-61
2022/01/30 01:49:32;;;;;;;0.93;0.60;;;8.20;99.90;;;;;;6221496;23;20004;-61
2022/01/30 01:52:41;;;;;;;0.40;0.40;;;8.20;99.90;;;;;;6248725;23;20080;-61
2022/01/30 01:54:59;;;;;;;1.13;0.60;;;8.20;99.90;;;;;;6229324;23;20429;-61
2022/01/30 01:57:26;;;;;;;1.02;0.75;;;8.20;99.90;;;;;;6248379;23;20067;-61
2022/01/30 01:59:53;;;;;;;1.02;0.52;;;8.20;99.90;;;;;;6248349;23;20050;-61
2022/01/30 02:02:20;;;;;;;0.63;0.50;;;8.20;99.90;;;;;;6221519;23;20004;-61
2022/01/30 02:04:46;;;;;;;0.30;0.25;;;8.20;99.90;;;;;;6221045;23;20008;-61
2022/01/30 02:10:00;;;;;;;2.10;0.90;;;8.10;99.90;;;;;;6248250;23;20004;-61
2022/01/30 02:12:34;;;;;;;0.90;0.40;;;8.20;99.90;;;;;;6248240;23;20000;-61
2022/01/30 02:25:44;;;;;;;0.30;0.30;;;8.20;99.90;;;;;;6247810;23;20027;-61
2022/01/30 02:28:13;;;;;;;1.58;0.50;;;8.20;99.90;;;;;;6248301;23;19996;-61
2022/01/30 02:30:46;;;;;;;0.57;0.30;;;8.20;99.90;;;;;;6247968;23;20426;-61
2022/01/30 02:33:11;;;;;;;0.50;0.50;;;8.30;99.90;;;;;;6248069;23;20071;-61
2022/01/30 02:35:37;;;;;;;0.32;0.30;;;8.30;99.90;;;;;;6247864;23;20456;-61
2022/01/30 02:38:03;;;;;;;0.50;0.50;;;8.30;99.90;;;;;;6248223;22;20317;-61
2022/01/30 02:40:33;;;;;;;0.60;0.47;;;8.30;99.90;;;;;;6248178;23;20437;-61
2022/01/30 02:42:58;;;;;;;0.52;0.35;;;8.30;99.90;;;;;;6248063;23;20409;-61
2022/01/30 02:45:28;;;;;;;0.82;0.25;;;8.30;99.90;;;;;;6247959;23;20067;-66
2022/01/30 02:50:50;;;;;;;0.80;0.40;;;8.30;99.90;;;;;;6258027;23;20424;-61
2022/01/30 02:53:16;;;;;;;0.43;0.20;;;8.30;99.90;;;;;;6221431;23;20000;-61
2022/01/30 02:55:42;;;;;;;0.40;0.40;;;8.30;99.90;;;;;;6220849;23;20319;-61
2022/01/30 02:58:08;;;;;;;0.40;0.20;;;8.20;99.90;;;;;;6220509;23;19996;-61
2022/01/30 03:00:34;;;;;;;3.22;0.55;;;8.20;99.90;;;;;;6247748;23;20007;-61
2022/01/30 03:02:59;;;;;;;1.48;0.28;;;8.20;99.90;;;;;;6247668;23;20046;-61
2022/01/30 03:05:25;;;;;;;0.30;0.30;;;8.20;99.90;;;;;;6247845;23;20004;-61
2022/01/30 03:07:52;;;;;;;0.20;0.20;;;8.10;99.90;;;;;;6247642;23;20047;-61
2022/01/30 03:10:18;;;;;;;2.08;0.40;;;8.20;99.90;;;;;;6248017;23;20008;-61
2022/01/30 03:12:44;;;;;;;3.53;0.20;;;8.10;99.90;;;;;;6247671;23;20050;-61
2022/01/30 03:15:10;;;;;;;0.63;0.30;;;8.10;99.90;;;;;;6247506;23;20009;-61
2022/01/30 03:17:36;;;;;;;0.50;0.50;;;8.20;99.90;;;;;;6247123;23;20027;-61
2022/01/30 03:20:03;;;;;;;1.40;0.40;;;8.10;99.90;;;;;;6247096;23;20426;-61
2022/01/30 03:22:29;;;;;;;0.63;0.30;;;8.10;99.90;;;;;;6247130;23;20329;-61
2022/01/30 03:24:55;;;;;;;0.20;0.20;;;8.10;99.90;;;;;;6247613;23;20083;-61
2022/01/30 03:27:20;;;;;;;0.40;0.17;;;8.20;99.90;;;;;;6247584;23;20418;-61
2022/01/30 03:29:49;;;;;;;0.20;0.20;;;8.20;99.90;;;;;;6220544;23;20000;-61
2022/01/30 03:32:15;;;;;;;0.35;0.28;;;8.20;99.90;;;;;;6247568;23;20001;-61
2022/01/30 03:34:41;;;;;;;2.00;0.30;;;8.20;99.90;;;;;;6247286;23;20553;-61
2022/01/30 03:37:06;;;;;;;1.95;0.30;;;8.10;99.90;;;;;;6247211;22;20012;-61
2022/01/30 03:39:32;;;;;;;1.50;0.20;;;8.10;99.90;;;;;;6220301;23;20011;-61
2022/01/30 03:41:58;;;;;;;0.30;0.13;;;8.10;99.90;;;;;;6247336;23;19996;-61
2022/01/30 03:44:23;;;;;;;0.22;0.22;;;8.10;99.90;;;;;;6220713;23;20027;-61
2022/01/30 03:46:49;;;;;;;0.30;0.30;;;8.20;99.90;;;;;;6247436;23;20119;-61
2022/01/30 03:49:15;;;;;;;3.30;0.40;;;8.20;99.90;;;;;;6247155;23;20008;-61
2022/01/30 03:51:40;;;;;;;0.20;0.15;;;8.20;99.90;;;;;;6220388;23;20004;-60
2022/01/30 03:54:06;;;;;;;0.43;0.20;;;8.20;99.90;;;;;;6247514;23;20012;-61
2022/01/30 03:56:32;;;;;;;0.22;0.22;;;8.20;99.90;;;;;;6247438;23;20000;-61
2022/01/30 03:58:57;;;;;;;1.08;0.30;;;8.20;99.90;;;;;;6247140;23;20007;-61
2022/01/30 04:01:23;;;;;;;0.50;0.40;;;8.30;99.90;;;;;;6246975;23;20287;-61
2022/01/30 04:03:49;;;;;;;0.30;0.30;;;8.20;99.90;;;;;;6246860;23;20007;-61
2022/01/30 04:06:14;;;;;;;0.63;0.20;;;8.20;99.90;;;;;;6247287;23;20004;-61
2022/01/30 04:08:40;;;;;;;0.22;0.22;;;8.20;99.90;;;;;;6247098;23;20003;-61
2022/01/30 04:11:06;;;;;;;0.20;0.20;;;8.20;99.90;;;;;;6247087;23;20071;-61
2022/01/30 04:13:32;;;;;;;0.28;0.28;;;8.30;99.90;;;;;;6220116;23;20004;-61
2022/01/30 04:15:58;;;;;;;0.13;0.13;;;8.20;99.90;;;;;;6246942;23;20045;-61
2022/01/30 04:18:23;;;;;;;0.50;0.43;;;8.20;99.90;;;;;;6247183;23;20422;-61
2022/01/30 04:20:51;;;;;;;0.40;0.10;;;8.20;99.90;;;;;;6220855;23;20057;-61
2022/01/30 04:23:17;;;;;;;0.20;0.10;;;8.20;99.90;;;;;;6220061;23;20322;-61
2022/01/30 04:25:42;;;;;;;0.10;0.10;;;8.20;99.90;;;;;;6246927;23;20015;-61
2022/01/30 04:30:53;;;;;;;0.40;0.40;;;8.10;99.90;;;;;;6246597;23;20449;-61
2022/01/30 04:33:19;;;;;;;0.10;0.10;;;8.20;99.90;;;;;;6247218;23;19996;-61
2022/01/30 04:35:45;;;;;;;0.17;0.10;;;8.10;99.90;;;;;;6219910;23;20016;-61
2022/01/30 04:39:26;;;;;;;0.10;0.10;;;8.10;99.90;;;;;;6247514;22;20012;-61
2022/01/30 04:41:31;;;;;;;0.57;0.05;;;8.10;99.90;;;;;;6220904;23;20000;-61
2022/01/30 05:08:11;;;;;;;0.03;0.00;;;7.50;99.90;;;;;;6246912;23;20332;-61
2022/01/30 05:10:36;;;;;;;0.00;0.00;;;7.20;99.90;;;;;;6220645;23;20054;-61
2022/01/30 05:13:06;;;;;;;0.20;0.00;;;7.00;99.90;;;;;;6220053;23;20341;-61
2022/01/30 05:15:32;;;;;;;0.15;0.10;;;6.80;99.90;;;;;;6219743;23;20306;-61
2022/01/30 05:17:58;;;;;;;0.10;0.00;;;6.70;99.90;;;;;;6246770;23;20031;-61
2022/01/30 05:20:24;;;;;;;0.10;0.10;;;6.50;99.90;;;;;;6246622;23;20437;-61
2022/01/30 05:22:50;;;;;;;0.00;0.00;;;6.50;99.90;;;;;;6246657;23;20440;-61
2022/01/30 05:25:16;;;;;;;0.30;0.00;;;6.40;99.90;;;;;;6220213;23;20011;-61
2022/01/30 05:27:42;;;;;;;0.35;0.05;;;6.40;99.90;;;;;;6246425;23;20326;-61
2022/01/30 05:30:08;;;;;;;0.00;0.00;;;6.50;99.90;;;;;;6246736;23;20000;-62
2022/01/30 05:32:34;;;;;;;0.40;0.10;;;6.60;99.90;;;;;;6246691;23;20350;-61
2022/01/30 05:35:00;;;;;;;0.10;0.00;;;6.60;99.90;;;;;;6219495;23;20015;-60
2022/01/30 05:37:26;;;;;;;0.25;0.05;;;6.70;99.90;;;;;;6245922;22;20069;-61
2022/01/30 05:39:52;;;;;;;0.13;0.03;;;6.70;99.90;;;;;;6246628;23;20325;-61
2022/01/30 05:45:16;;;;;;;0.15;0.10;;;6.70;99.90;;;;;;6246423;23;20015;-61
2022/01/30 05:47:47;;;;;;;2.08;0.28;;;6.80;99.90;;;;;;6246806;23;20003;-61
2022/01/30 05:50:13;;;;;;;0.20;0.10;;;6.80;99.90;;;;;;6246787;23;19999;-61
2022/01/30 05:52:58;;;;;;;0.38;0.03;;;6.80;99.90;;;;;;6219638;23;20000;-61
2022/01/30 05:55:23;;;;;;;1.85;0.30;;;6.80;99.90;;;;;;6219659;23;20401;-61
2022/01/30 05:57:49;;;;;;;2.75;0.20;;;6.80;99.90;;;;;;6219654;23;20028;-61
2022/01/30 06:00:16;;;;;;;1.38;0.30;;;6.90;99.90;;;;;;6246443;23;19997;-60
2022/01/30 06:02:45;;;;;;;0.47;0.20;;;6.80;99.90;;;;;;6247799;23;20028;-61
2022/01/30 06:05:14;;;;;;;3.10;0.40;;;6.90;99.90;;;;;;6247859;23;20004;-61
2022/01/30 06:07:48;;;;;;;1.90;0.40;;;7.00;99.90;;;;;;6248243;23;20386;-60
2022/01/30 06:10:14;;;;;;;0.77;0.35;;;7.00;99.90;;;;;;6248304;23;20441;-61
2022/01/30 06:12:40;;;;;;;1.55;0.20;;;7.10;99.90;;;;;;6248204;23;19997;-61
2022/01/30 06:15:06;;;;;;;0.50;0.25;;;7.30;99.90;;;;;;6221114;23;20093;-61
2022/01/30 06:17:32;;;;;;;0.50;0.28;;;7.40;99.90;;;;;;6248445;23;19996;-61
2022/01/30 06:19:57;;;;;;;1.65;0.20;;;7.50;99.90;;;;;;6247684;23;20035;-61
2022/01/30 06:22:23;;;;;;;3.63;0.30;;;7.50;99.90;;;;;;6248095;23;20004;-61
2022/01/30 06:24:49;;;;;;;0.52;0.28;;;7.60;99.90;;;;;;6248083;23;20458;-61
2022/01/30 06:27:14;;;;;;;5.28;0.50;;;7.70;99.90;;;;;;6247718;23;20318;-61
2022/01/30 06:29:40;;;;;;;3.92;0.40;;;7.60;99.90;;;;;;6221172;23;20015;-60
2022/01/30 06:32:06;;;;;;;1.85;0.50;;;7.50;99.90;;;;;;6247910;23;20008;-61
2022/01/30 06:34:31;;;;;;;3.42;0.43;;;7.30;99.90;;;;;;6248099;23;20079;-61
2022/01/30 06:36:57;;;;;;;0.68;0.68;;;7.30;99.90;;;;;;6220479;23;20101;-61
2022/01/30 06:39:23;;;;;;;4.60;0.57;;;7.20;99.90;;;;;;6248196;23;20000;-61
2022/01/30 06:41:48;;;;;;;2.55;0.40;;;7.30;99.90;;;;;;6247889;23;19992;-61
2022/01/30 06:44:14;;;;;;;7.85;1.52;;;7.30;99.90;;;;;;6221680;23;20094;-61
2022/01/30 06:46:40;;;;;;;0.55;0.20;;;7.30;99.90;;;;;;6247614;23;20003;-61
2022/01/30 06:49:05;;;;;;;0.75;0.32;;;7.20;99.90;;;;;;6247807;23;20003;-61
2022/01/30 06:51:31;;;;;;;5.15;0.73;;;7.20;99.90;;;;;;6247427;23;20003;-61
2022/01/30 06:53:57;;;;;;;1.25;0.38;;;7.10;99.90;;;;;;6247734;23;20091;-61
2022/01/30 06:56:22;;;;;;;2.67;0.30;;;7.10;99.90;;;;;;6247805;23;20027;-61
2022/01/30 06:58:48;;;;;;;1.40;0.50;;;7.10;99.90;;;;;;6247757;23;20059;-61
2022/01/30 07:01:13;;;;;;;2.60;0.35;;;7.00;99.90;;;;;;6246139;23;20062;-61
2022/01/30 07:03:39;;;;;;;2.50;0.32;;;7.20;99.90;;;;;;6246059;23;20011;-61
2022/01/30 07:06:05;;;;;;;1.30;0.52;;;7.20;99.90;;;;;;6247421;23;20000;-61
2022/01/30 07:08:30;;;;;;;3.25;0.55;;;7.30;99.90;;;;;;6247691;23;20000;-61
2022/01/30 07:10:56;;;;;;;2.53;0.50;;;7.40;99.90;;;;;;6247614;23;20034;-61
2022/01/30 07:13:22;;;;;;;0.25;0.22;;;7.40;99.90;;;;;;6247576;23;19997;-61
2022/01/30 07:15:47;;;;;;;3.22;0.40;;;7.50;99.90;;;;;;6247842;23;20012;-61
2022/01/30 07:18:13;;;;;;;3.70;0.47;;;7.50;99.90;;;;;;6247636;23;20001;-61
2022/01/30 07:20:39;;;;;;;1.08;0.30;;;7.50;99.90;;;;;;6247163;23;19996;-61
2022/01/30 07:23:04;;;;;;;3.08;0.32;;;7.50;99.90;;;;;;6247429;23;20062;-61
2022/01/30 07:25:30;;;;;;;3.53;0.40;;;7.60;99.90;;;;;;6247470;23;20005;-61
2022/01/30 07:27:56;;;;;;;2.45;0.57;;;7.60;99.90;;;;;;6247105;23;20000;-61
2022/01/30 07:30:21;;;;;;;3.22;0.40;;;7.70;99.90;;;;;;6247002;23;20027;-61
2022/01/30 07:32:47;;;;;;;3.78;0.70;;;7.50;99.90;;;;;;6247331;23;20012;-62
2022/01/30 07:35:13;;;;;;;1.10;0.40;;;7.50;99.90;;;;;;6247515;23;20011;-61
2022/01/30 07:37:39;;;;;;;1.42;0.28;;;7.50;99.90;;;;;;6247583;22;20008;-61
2022/01/30 07:40:06;;;;;;;2.47;0.25;;;7.50;99.90;;;;;;6247317;23;20006;-61
2022/01/30 07:42:33;;;;;;;2.88;0.60;;;7.70;99.90;;;;;;6220460;23;20008;-61
2022/01/30 07:44:59;;;;;;;5.05;0.70;;;8.00;99.90;;;;;;6246907;23;20000;-60
2022/01/30 07:47:25;;;;;;;1.95;0.40;;;8.20;99.90;;;;;;6247211;23;20079;-61
2022/01/30 07:49:53;;;;;;;2.95;0.30;;;8.30;99.90;;;;;;6246873;23;20028;-61
2022/01/30 07:52:22;;;;;;;2.42;0.43;;;8.40;99.90;;;;;;6247299;23;20001;-61
2022/01/30 07:54:49;;;;;;;7.30;0.40;;;8.50;99.90;;;;;;6220394;23;20074;-61
2022/01/30 07:57:15;;;;;;;1.00;0.20;;;8.60;99.90;;;;;;6246763;23;20000;-61
2022/01/30 07:59:41;;;;;;;2.55;0.30;;;8.60;99.90;;;;;;6247146;23;20000;-61
2022/01/30 08:02:07;;;;;;;0.50;0.32;;;8.50;99.90;;;;;;6246787;23;20070;-61
2022/01/30 08:04:33;;;;;;;1.52;0.30;;;8.30;99.90;;;;;;6219723;23;20000;-61
2022/01/30 08:07:00;;;;;;;3.80;0.60;;;8.00;99.90;;;;;;6220182;23;19996;-62
2022/01/30 08:09:26;;;;;;;2.25;0.50;;;7.90;99.90;;;;;;6247816;23;19997;-61
2022/01/30 08:11:52;;;;;;;2.38;0.40;;;7.80;99.90;;;;;;6220587;23;20003;-62
2022/01/30 08:14:18;;;;;;;3.95;0.55;;;7.70;99.90;;;;;;6247026;23;20004;-61
2022/01/30 08:16:43;;;;;;;1.88;0.50;;;7.70;99.90;;;;;;6246951;23;20001;-61
2022/01/30 08:19:09;;;;;;;1.98;0.75;;;7.70;99.20;;;;;;6247335;23;20007;-61
2022/01/30 08:21:35;;;;;;;3.85;0.55;;;7.80;95.90;;;;;;6246994;23;20434;-61
2022/01/30 08:24:01;;;;;;;3.83;0.50;;;7.80;96.10;;;;;;6247302;23;20007;-61
2022/01/30 08:26:26;;;;;;;2.17;0.40;;;7.90;95.90;;;;;;6220576;23;20000;-61
2022/01/30 08:28:52;;;;;;;4.03;0.30;;;8.00;93.50;;;;;;6247511;23;20000;-61
2022/01/30 08:31:17;;;;;;;6.47;0.40;;;8.10;94.90;;;;;;6246902;23;20004;-61
2022/01/30 08:33:43;;;;;;;0.77;0.25;;;8.10;93.80;;;;;;6220237;23;20026;-61
2022/01/30 08:36:09;;;;;;;5.43;0.73;;;8.10;91.50;;;;;;6246500;23;20444;-61
2022/01/30 08:38:34;;;;;;;0.52;0.30;;;8.20;90.80;;;;;;6246627;22;20329;-61
2022/01/30 08:41:00;;;;;;;0.38;0.20;;;8.30;88.70;;;;;;6247082;23;20003;-61
2022/01/30 08:43:26;;;;;;;0.65;0.25;;;8.60;86.00;;;;;;6246833;23;20008;-61
2022/01/30 08:45:52;;;;;;;1.63;0.22;;;9.00;80.00;;;;;;6247153;23;20413;-61
2022/01/30 08:48:19;;;;;;;2.30;0.35;;;9.40;76.80;;;;;;6246776;23;20030;-61
2022/01/30 08:50:45;;;;;;;3.85;0.65;;;9.60;72.60;;;;;;6246768;23;20004;-61
2022/01/30 08:53:11;;;;;;;5.60;0.30;;;9.90;69.00;;;;;;6246683;23;19992;-61
2022/01/30 08:55:37;;;;;;;0.85;0.30;;;10.00;65.50;;;;;;6246800;23;20008;-61
2022/01/30 08:58:09;;;;;;;2.38;0.52;;;9.50;67.30;;;;;;6246878;23;20007;-61
2022/01/30 09:00:40;;;;;;;1.90;0.20;;;9.00;72.30;;;;;;6219469;23;20007;-62
2022/01/30 09:03:07;;;;;;;1.10;0.30;;;8.80;75.00;;;;;;6247022;23;19996;-60
2022/01/30 09:05:33;;;;;;;4.97;0.55;;;9.30;74.40;;;;;;6247082;23;20011;-62
2022/01/30 09:08:04;;;;;;;1.50;0.50;;;9.80;70.50;;;;;;6246872;23;20402;-64
2022/01/30 09:10:30;;;;;;;3.70;0.45;;;9.40;71.90;;;;;;6219900;23;20094;-62
2022/01/30 09:12:56;;;;;;;5.03;0.57;;;8.90;74.60;;;;;;6248134;23;19996;-71
2022/01/30 09:15:22;;;;;;;1.98;0.60;;;9.00;89.40;;;;;;6247163;23;20039;-65
2022/01/30 09:17:47;;;;;;;2.60;0.22;;;9.10;86.80;;;;;;6246983;23;20023;-65
2022/01/30 09:20:13;;;;;;;2.83;0.47;;;9.20;95.10;;;;;;6220890;23;20007;-65
2022/01/30 09:22:39;;;;;;;3.03;0.40;;;9.10;84.60;;;;;;6223059;23;20004;-67
2022/01/30 09:25:06;;;;;;;2.50;0.30;;;9.40;91.40;;;;;;6248788;23;20004;-69
2022/01/30 09:27:32;;;;;;;1.20;0.25;;;9.60;92.70;;;;;;6220678;23;20007;-67
2022/01/30 09:29:58;;;;;;;3.22;0.50;;;9.80;84.80;;;;;;6247483;23;20317;-66
2022/01/30 09:32:23;;;;;;;4.07;0.77;;;10.10;80.10;;;;;;6220474;23;20485;-67
2022/01/30 09:34:49;;;;;;;3.08;0.30;;;10.40;75.20;;;;;;6220550;23;20307;-66
2022/01/30 09:37:15;;;;;;;1.42;0.35;;;10.50;72.60;;;;;;6247825;22;20078;-67
2022/01/30 09:39:41;;;;;;;2.83;0.50;;;10.40;76.00;;;;;;6248803;23;19996;-66
2022/01/30 09:42:07;;;;;;;3.83;0.35;;;10.10;77.50;;;;;;6248808;23;20075;-68
2022/01/30 09:44:39;;;;;;;3.85;0.38;;;10.30;86.60;;;;;;6249230;23;20037;-68
2022/01/30 09:47:11;;;;;;;1.30;0.20;;;10.20;77.30;;;;;;6221931;23;20001;-69
2022/01/30 09:49:40;;;;;;;2.72;0.70;;;10.00;75.50;;;;;;6249032;23;20070;-63
2022/01/30 09:52:08;;;;;;;1.73;0.20;;;9.80;68.00;;;;;;6248370;23;20067;-64
2022/01/30 09:54:34;;;;;;;2.15;0.30;;;9.30;71.90;;;;;;6248832;23;20000;-64
2022/01/30 09:57:00;;;;;;;0.63;0.40;;;9.10;71.60;;;;;;6248343;23;20019;-63
2022/01/30 09:59:26;;;;;;;1.75;0.35;;;9.10;69.10;;;;;;6221488;23;20375;-62
2022/01/30 10:01:51;;;;;;;2.70;0.47;;;9.20;69.70;;;;;;6248633;23;20288;-62
2022/01/30 10:04:18;;;;;;;2.25;0.50;;;9.10;67.90;;;;;;6248281;23;20008;-62
2022/01/30 10:06:50;;;;;;;2.30;0.70;;;9.10;70.30;;;;;;6221454;23;20028;-62
2022/01/30 10:09:25;;;;;;;2.22;0.50;;;9.10;70.80;;;;;;6221993;23;20342;-62
2022/01/30 10:12:01;;;;;;;1.20;0.30;;;9.10;70.30;;;;;;6248236;23;20026;-62
2022/01/30 10:14:27;;;;;;;1.00;0.20;;;9.10;68.00;;;;;;6248494;23;20425;-62
2022/01/30 10:16:53;;;;;;;1.20;0.30;;;8.90;66.50;;;;;;6221844;23;20036;-62
2022/01/30 10:19:20;;;;;;;1.58;0.32;;;8.80;66.60;;;;;;6248421;23;20001;-62
2022/01/30 10:21:48;;;;;;;3.33;0.43;;;8.70;69.50;;;;;;6221251;23;20004;-62
2022/01/30 10:24:21;;;;;;;4.30;0.50;;;8.60;68.80;;;;;;6247777;23;20413;-61
2022/01/30 10:26:47;;;;;;;3.97;0.35;;;8.60;71.20;;;;;;6248247;23;19992;-61
2022/01/30 10:29:27;;;;;;;2.88;0.85;;;8.60;67.60;;;;;;6221615;23;20425;-61
2022/01/30 10:32:11;;;;;;;3.47;0.35;;;8.50;68.20;;;;;;6248385;23;20000;-61
2022/01/30 10:34:38;;;;;;;4.00;0.65;;;8.50;73.20;;;;;;6248508;23;20322;-61
2022/01/30 10:37:15;;;;;;;5.38;0.30;;;8.40;72.70;;;;;;6220874;23;20024;-61
2022/01/30 10:39:59;;;;;;;1.30;0.40;;;8.40;75.30;;;;;;6247989;23;20003;-61
2022/01/30 10:42:33;;;;;;;1.55;0.35;;;8.40;75.90;;;;;;6247870;23;20008;-61
2022/01/30 10:44:59;;;;;;;4.30;0.60;;;8.40;75.80;;;;;;6246568;23;20325;-61
2022/01/30 10:47:24;;;;;;;2.13;0.70;;;8.30;73.70;;;;;;6220814;23;20000;-61
2022/01/30 10:49:50;;;;;;;3.88;0.40;;;8.30;72.50;;;;;;6221105;23;20421;-61
2022/01/30 10:52:17;;;;;;;4.38;0.70;;;8.30;73.00;;;;;;6247511;23;20031;-61
2022/01/30 10:54:48;;;;;;;1.20;0.60;;;8.30;75.20;;;;;;6221256;23;20012;-62
2022/01/30 10:57:15;;;;;;;0.80;0.30;;;8.30;75.10;;;;;;6247937;23;20001;-61
2022/01/30 10:59:43;;;;;;;3.70;0.55;;;8.20;75.40;;;;;;6246297;23;20011;-62
2022/01/30 11:02:23;;;;;;;1.85;0.40;;;8.30;76.70;;;;;;6221333;23;20388;-61
2022/01/30 11:04:50;;;;;;;6.75;0.30;;;8.30;77.10;;;;;;6247624;23;20429;-62
2022/01/30 11:07:20;;;;;;;2.63;0.70;;;8.40;75.50;;;;;;6248103;23;20063;-62
2022/01/30 11:10:23;;;;;;;1.83;0.22;;;8.40;70.70;;;;;;6221052;23;20004;-62
2022/01/30 11:13:07;;;;;;;4.00;0.40;;;8.40;71.70;;;;;;6221082;23;20023;-63
2022/01/30 11:15:38;;;;;;;3.60;0.70;;;8.50;72.50;;;;;;6247694;23;20008;-63
2022/01/30 11:18:05;;;;;;;0.73;0.30;;;9.00;72.90;;;;;;6220798;23;20429;-63
2022/01/30 11:20:32;;;;;;;3.50;0.63;;;8.80;70.20;;;;;;6247610;23;19997;-62
2022/01/30 11:23:03;;;;;;;1.52;0.20;;;9.00;68.10;;;;;;6247894;23;20024;-61
2022/01/30 11:25:35;;;;;;;3.97;0.50;;;9.20;62.50;;;;;;6247865;23;20006;-62
2022/01/30 11:28:03;;;;;;;2.08;0.60;;;9.30;65.40;;;;;;6221361;23;20027;-61
2022/01/30 11:30:34;;;;;;;2.35;0.55;;;9.30;65.70;;;;;;6247798;23;19993;-62
2022/01/30 11:33:00;;;;;;;2.40;0.60;;;9.20;67.30;;;;;;6220635;23;20426;-62
2022/01/30 11:35:27;;;;;;;2.28;0.40;;;9.00;70.00;;;;;;6247620;23;20315;-62
2022/01/30 11:37:53;;;;;;;2.00;0.77;;;8.90;71.90;;;;;;6247560;22;20008;-61
2022/01/30 11:40:20;;;;;;;2.45;0.47;;;8.70;72.60;;;;;;6220393;23;20000;-61
2022/01/30 11:42:51;;;;;;;2.42;0.57;;;8.60;74.50;;;;;;6220350;23;20441;-61
2022/01/30 11:45:29;;;;;;;5.15;0.55;;;8.50;77.50;;;;;;6247382;23;20007;-61
2022/01/30 11:47:59;;;;;;;2.63;0.60;;;8.50;77.10;;;;;;6220626;23;20083;-61
2022/01/30 11:50:30;;;;;;;2.92;0.30;;;8.40;77.70;;;;;;6247147;23;20480;-61
2022/01/30 11:53:06;;;;;;;1.23;0.40;;;8.40;77.60;;;;;;6247234;23;19996;-62
2022/01/30 11:55:50;;;;;;;4.85;0.47;;;8.40;75.20;;;;;;6247819;23;20398;-62
2022/01/30 11:58:33;;;;;;;4.93;0.38;;;8.40;75.00;;;;;;6247883;23;20003;-61
2022/01/30 12:01:27;;;;;;;1.63;0.30;;;8.40;76.80;;;;;;6246937;23;19992;-61
2022/01/30 12:04:01;;;;;;;1.60;0.50;;;8.30;76.40;;;;;;6247058;23;20402;-61
2022/01/30 12:06:30;;;;;;;3.25;0.55;;;8.30;75.70;;;;;;6247328;23;20034;-61
2022/01/30 12:08:59;;;;;;;0.82;0.30;;;8.20;75.60;;;;;;6247099;23;20418;-61
2022/01/30 12:14:03;;;;;;;3.03;0.50;;;8.30;77.50;;;;;;6246950;23;20008;-61
2022/01/30 12:16:56;;;;;;;3.72;0.25;;;8.30;78.40;;;;;;6246555;23;20083;-61
2022/01/30 12:19:30;;;;;;;4.55;0.70;;;8.30;79.10;;;;;;6246700;23;20451;-61
2022/01/30 12:22:00;;;;;;;1.58;0.30;;;8.30;74.20;;;;;;6220096;23;20008;-61
2022/01/30 12:24:27;;;;;;;4.60;0.40;;;8.20;76.70;;;;;;6246572;23;20004;-61
2022/01/30 12:26:54;;;;;;;2.97;0.68;;;8.10;78.40;;;;;;6246965;23;20422;-61
2022/01/30 12:29:35;;;;;;;1.70;0.50;;;8.20;79.10;;;;;;6246960;23;20321;-62
2022/01/30 12:32:20;;;;;;;2.85;0.43;;;8.10;80.30;;;;;;6220006;23;20027;-62
2022/01/30 12:34:47;;;;;;;2.20;0.32;;;8.10;81.00;;;;;;6219969;23;20008;-61
2022/01/30 12:37:20;;;;;;;1.88;0.57;;;8.20;78.60;;;;;;6246946;22;20012;-62
2022/01/30 12:39:45;;;;;;;1.05;0.20;;;8.20;79.40;;;;;;6220805;23;20000;-61
2022/01/30 12:42:15;;;;;;;2.42;0.30;;;8.20;76.90;;;;;;6246920;23;20000;-61
2022/01/30 12:44:41;;;;;;;3.30;0.30;;;8.10;79.50;;;;;;6221058;23;20008;-61
2022/01/30 12:47:07;;;;;;;2.50;0.63;;;8.20;80.20;;;;;;6246906;23;20418;-61
2022/01/30 12:49:40;;;;;;;3.42;0.45;;;8.20;80.60;;;;;;6247185;23;20000;-61
2022/01/30 12:52:10;;;;;;;1.90;0.38;;;8.20;79.40;;;;;;6221115;23;20003;-61
2022/01/30 12:54:41;;;;;;;5.40;0.70;;;8.10;81.60;;;;;;6246594;23;20008;-62
2022/01/30 12:57:08;;;;;;;2.15;0.40;;;8.00;80.50;;;;;;6246839;23;20080;-61
2022/01/30 12:59:34;;;;;;;2.63;0.30;;;7.90;80.50;;;;;;6246734;23;20491;-61
2022/01/30 13:02:07;;;;;;;3.40;0.52;;;7.90;80.80;;;;;;6246384;23;19996;-62
2022/01/30 13:04:33;;;;;;;2.75;0.63;;;7.90;82.40;;;;;;6246608;23;20430;-62
2022/01/30 13:06:58;;;;;;;1.30;0.22;;;7.90;81.60;;;;;;6246269;23;20063;-61
2022/01/30 13:09:30;;;;;;;3.97;0.50;;;7.80;83.60;;;;;;6246464;23;20067;-62
2022/01/30 13:12:11;;;;;;;5.07;0.63;;;7.80;81.90;;;;;;6248858;23;20024;-61
2022/01/30 13:14:41;;;;;;;2.30;0.60;;;7.80;83.10;;;;;;6248511;23;20005;-61
2022/01/30 13:17:08;;;;;;;5.93;0.88;;;7.80;81.80;;;;;;6221798;23;20028;-62
2022/01/30 13:19:42;;;;;;;3.65;0.40;;;7.80;83.20;;;;;;6248681;23;20024;-61
2022/01/30 13:22:25;;;;;;;2.10;1.00;;;7.70;83.90;;;;;;6248775;23;20322;-61
2022/01/30 13:24:56;;;;;;;3.30;0.32;;;7.70;82.10;;;;;;6248821;23;20049;-61
2022/01/30 13:27:21;;;;;;;2.38;0.50;;;7.70;79.60;;;;;;6221944;23;20004;-62
2022/01/30 13:29:47;;;;;;;3.15;0.43;;;7.70;80.50;;;;;;6249168;23;20376;-61
2022/01/30 13:32:13;;;;;;;2.85;0.40;;;7.70;81.90;;;;;;6249144;23;20001;-61
2022/01/30 13:34:41;;;;;;;4.97;0.45;;;7.70;80.90;;;;;;6248889;23;20015;-62
2022/01/30 13:37:11;;;;;;;3.75;0.30;;;7.70;80.80;;;;;;6248900;22;20004;-61
2022/01/30 13:40:00;;;;;;;4.72;0.70;;;7.70;81.70;;;;;;6221775;23;20341;-61
2022/01/30 13:42:36;;;;;;;3.22;0.63;;;7.70;81.70;;;;;;6221820;23;20444;-61
2022/01/30 13:47:54;;;;;;;2.75;0.40;;;7.60;84.10;;;;;;6247718;23;20032;-61
2022/01/30 13:50:22;;;;;;;2.72;1.08;;;7.60;81.80;;;;;;6248402;23;20410;-61
2022/01/30 13:52:59;;;;;;;2.85;0.68;;;7.60;83.80;;;;;;6221567;23;20008;-62
2022/01/30 13:55:25;;;;;;;5.93;0.68;;;7.70;82.80;;;;;;6221794;23;20012;-62
2022/01/30 13:57:57;;;;;;;1.65;0.47;;;7.60;84.00;;;;;;6221075;23;20023;-64
2022/01/30 14:00:24;;;;;;;0.85;0.43;;;7.60;82.90;;;;;;6221612;23;20004;-62
2022/01/30 14:02:58;;;;;;;4.63;0.60;;;7.60;83.70;;;;;;6221370;23;20007;-62
2022/01/30 14:05:34;;;;;;;2.78;0.60;;;7.60;85.60;;;;;;6221544;23;20004;-62